Time;durP1;ratioP1;P1;durP2;ratioP2;P2;SDS_P1;SDS_P2;PMS_P1;PMS_P2;Temp;Humidity;BMP_temperature;BMP_pressure;BME280_temperature;BME280_humidity;BME280_pressure;Samples;Min_cycle;Max_cycle;Signal;HPM_P1;HPM_P2
2022/01/07 00:01:06;;;;;;;8.25;4.97;;;;;;;0.05;100.00;94624.81;4964211;28;20072;-91
2022/01/07 00:03:32;;;;;;;10.25;5.47;;;;;;;-0.02;100.00;94629.94;4964635;28;20026;-92
2022/01/07 00:05:59;;;;;;;9.20;4.88;;;;;;;-0.07;100.00;94624.59;4964364;28;20466;-91
2022/01/07 00:08:25;;;;;;;8.77;4.95;;;;;;;0.02;100.00;94625.22;4964305;28;20022;-91
2022/01/07 00:10:51;;;;;;;7.80;4.82;;;;;;;0.09;100.00;94621.66;4980324;28;20030;-91
2022/01/07 00:13:16;;;;;;;10.27;4.85;;;;;;;-0.09;100.00;94626.56;4964521;28;20032;-92
2022/01/07 00:15:42;;;;;;;12.88;6.07;;;;;;;-0.21;100.00;94618.63;4964503;28;20117;-91
2022/01/07 00:18:08;;;;;;;11.60;5.57;;;;;;;-0.25;100.00;94625.13;4963980;28;20030;-91
2022/01/07 00:20:34;;;;;;;11.25;5.65;;;;;;;-0.27;100.00;94616.81;4964179;28;20115;-91
2022/01/07 00:23:00;;;;;;;9.07;5.05;;;;;;;-0.22;100.00;94619.56;4964455;28;20102;-92
2022/01/07 00:25:25;;;;;;;11.02;5.20;;;;;;;-0.17;100.00;94622.38;4980571;28;20038;-92
2022/01/07 00:27:52;;;;;;;13.55;5.82;;;;;;;-0.26;100.00;94626.09;4982522;28;20029;-91
2022/01/07 00:30:19;;;;;;;12.48;5.70;;;;;;;-0.30;100.00;94625.69;4968121;28;20030;-91
2022/01/07 00:32:45;;;;;;;15.40;6.35;;;;;;;-0.32;100.00;94632.81;4967998;28;20038;-93
2022/01/07 00:35:13;;;;;;;10.55;5.85;;;;;;;-0.37;100.00;94630.81;4984118;28;20347;-91
2022/01/07 00:37:38;;;;;;;13.38;6.82;;;;;;;-0.35;100.00;94626.28;4983798;28;20030;-92
2022/01/07 00:40:07;;;;;;;11.90;6.10;;;;;;;-0.41;100.00;94639.91;4967619;28;20092;-92
2022/01/07 00:42:33;;;;;;;13.27;6.53;;;;;;;-0.29;100.00;94632.44;4968154;28;20117;-92
2022/01/07 00:44:58;;;;;;;12.75;6.72;;;;;;;-0.28;100.00;94631.47;4967931;28;20129;-92
2022/01/07 00:47:24;;;;;;;11.88;6.30;;;;;;;-0.37;100.00;94624.88;4967819;28;20069;-93
2022/01/07 00:49:50;;;;;;;12.45;6.68;;;;;;;-0.46;100.00;94639.72;4968093;28;20053;-92
2022/01/07 00:52:15;;;;;;;16.42;6.97;;;;;;;-0.47;100.00;94641.47;4967896;28;20026;-92
2022/01/07 00:54:41;;;;;;;17.27;5.97;;;;;;;-0.39;100.00;94640.50;4967831;28;20030;-92
2022/01/07 00:57:06;;;;;;;18.92;6.43;;;;;;;-0.35;100.00;94644.31;4967539;28;20030;-91
2022/01/07 00:59:32;;;;;;;13.77;6.43;;;;;;;-0.36;100.00;94641.91;4967847;28;20125;-91
2022/01/07 01:01:57;;;;;;;13.88;6.40;;;;;;;-0.46;100.00;94644.84;4967715;28;20034;-91
2022/01/07 01:04:23;;;;;;;17.90;6.18;;;;;;;-0.46;100.00;94642.28;4967533;28;20030;-92
2022/01/07 01:06:48;;;;;;;13.20;5.47;;;;;;;-0.49;100.00;94646.03;4967363;28;20041;-90
2022/01/07 01:09:14;;;;;;;15.07;6.00;;;;;;;-0.57;100.00;94646.19;4967656;28;20420;-92
2022/01/07 01:11:39;;;;;;;12.68;6.43;;;;;;;-0.59;100.00;94645.56;4983326;28;20121;-92
2022/01/07 01:14:05;;;;;;;11.40;5.72;;;;;;;-0.54;100.00;94653.53;4983363;28;20037;-91
2022/01/07 01:16:31;;;;;;;12.05;6.03;;;;;;;-0.62;100.00;94649.34;4967717;28;20439;-91
2022/01/07 01:18:57;;;;;;;13.27;5.43;;;;;;;-0.62;100.00;94656.25;4983533;28;20034;-92
2022/01/07 01:21:23;;;;;;;10.95;5.65;;;;;;;-0.54;100.00;94645.81;4967445;28;20093;-92
2022/01/07 01:23:50;;;;;;;10.32;5.70;;;;;;;-0.49;100.00;94653.75;4967117;28;20030;-92
2022/01/07 01:26:18;;;;;;;16.50;6.13;;;;;;;-0.59;100.00;94659.25;4967309;28;20030;-92
2022/01/07 01:28:44;;;;;;;13.15;6.07;;;;;;;-0.56;100.00;94658.06;4967234;28;20027;-91
2022/01/07 01:31:10;;;;;;;11.82;6.07;;;;;;;-0.47;100.00;94649.19;4967307;28;20034;-92
2022/01/07 01:33:35;;;;;;;13.55;5.60;;;;;;;-0.59;100.00;94655.84;4982982;28;20030;-92
2022/01/07 01:36:01;;;;;;;12.95;5.93;;;;;;;-0.52;100.00;94656.72;4967177;28;20030;-92
2022/01/07 01:38:30;;;;;;;13.80;6.15;;;;;;;-0.64;100.00;94658.22;4966361;28;20242;-92
2022/01/07 01:40:56;;;;;;;12.45;6.53;;;;;;;-0.75;100.00;94659.56;4982483;28;20351;-91
2022/01/07 01:43:22;;;;;;;22.85;7.22;;;;;;;-0.79;100.00;94653.97;4982903;28;20030;-92
2022/01/07 01:45:47;;;;;;;20.55;6.65;;;;;;;-0.65;100.00;94648.91;4982748;28;20030;-92
2022/01/07 01:48:13;;;;;;;14.38;6.05;;;;;;;-0.73;100.00;94653.22;4982833;28;20022;-91
2022/01/07 01:50:38;;;;;;;11.05;5.55;;;;;;;-0.72;100.00;94659.16;4983249;28;20036;-92
2022/01/07 01:53:04;;;;;;;15.00;5.88;;;;;;;-0.81;100.00;94653.38;4966649;28;20026;-92
2022/01/07 01:55:30;;;;;;;11.68;5.47;;;;;;;-0.77;100.00;94658.94;4966839;28;20033;-91
2022/01/07 01:57:56;;;;;;;13.98;5.72;;;;;;;-0.75;100.00;94657.75;4966757;28;20032;-91
2022/01/07 02:00:23;;;;;;;15.32;5.28;;;;;;;-0.78;100.00;94654.78;4966467;28;20040;-92
2022/01/07 02:02:49;;;;;;;14.15;5.35;;;;;;;-0.66;100.00;94647.31;4982574;28;20026;-91
2022/01/07 02:05:15;;;;;;;12.73;6.20;;;;;;;-0.64;100.00;94641.00;4966404;28;20037;-92
2022/01/07 02:07:41;;;;;;;13.07;5.55;;;;;;;-0.68;100.00;94642.34;4966648;28;20037;-92
2022/01/07 02:10:10;;;;;;;12.65;5.93;;;;;;;-0.57;100.00;94648.78;4982375;28;20026;-91
2022/01/07 02:12:35;;;;;;;16.77;5.55;;;;;;;-0.65;100.00;94638.63;4966545;28;20026;-90
2022/01/07 02:15:01;;;;;;;12.05;5.65;;;;;;;-0.62;100.00;94648.53;4982117;28;20084;-93
2022/01/07 02:17:27;;;;;;;14.93;6.10;;;;;;;-0.60;100.00;94642.22;4966312;28;20128;-92
2022/01/07 02:19:56;;;;;;;13.88;6.03;;;;;;;-0.81;100.00;94640.50;4966028;28;20444;-92
2022/01/07 02:22:25;;;;;;;14.48;5.22;;;;;;;-0.79;100.00;94650.59;4966369;28;20080;-93
2022/01/07 02:24:52;;;;;;;14.70;5.53;;;;;;;-0.82;100.00;94644.06;4966449;28;20128;-92
2022/01/07 02:30:39;;;;;;;12.57;5.65;;;;;;;-0.62;100.00;94645.94;4999571;28;20041;-92
2022/01/07 02:33:05;;;;;;;13.38;5.43;;;;;;;-0.66;100.00;94642.19;4965931;28;20348;-92
2022/01/07 02:35:33;;;;;;;17.00;5.90;;;;;;;-0.80;100.00;94641.28;4981778;28;20056;-91
2022/01/07 02:37:59;;;;;;;12.82;6.18;;;;;;;-0.75;100.00;94637.19;4965587;28;20065;-91
2022/01/07 02:40:25;;;;;;;16.33;6.80;;;;;;;-0.70;100.00;94640.97;4965747;28;20053;-92
2022/01/07 02:42:51;;;;;;;23.73;7.13;;;;;;;-0.82;100.00;94638.13;4973633;28;20033;-92
2022/01/07 02:45:20;;;;;;;13.80;7.57;;;;;;;-0.97;100.00;94636.44;4985253;28;20030;-91
2022/01/07 02:47:57;;;;;;;14.77;6.75;;;;;;;-0.86;100.00;94632.56;4983602;28;20081;-91
2022/01/07 02:50:33;;;;;;;18.95;8.45;;;;;;;-0.83;100.00;94634.75;4981333;28;20064;-91
2022/01/07 02:52:59;;;;;;;17.60;7.03;;;;;;;-0.83;100.00;94637.34;4965745;28;20077;-92
2022/01/07 02:55:25;;;;;;;14.60;6.25;;;;;;;-0.94;100.00;94635.28;4981757;28;20038;-91
2022/01/07 02:57:51;;;;;;;14.52;6.32;;;;;;;-1.06;100.00;94628.09;4981432;28;20500;-91
2022/01/07 03:00:18;;;;;;;19.45;7.30;;;;;;;-1.01;100.00;94623.16;4997431;28;20035;-91
2022/01/07 03:02:44;;;;;;;21.80;7.13;;;;;;;-1.03;100.00;94621.78;4965668;28;20052;-92
2022/01/07 03:05:10;;;;;;;13.57;5.85;;;;;;;-0.99;100.00;94622.97;4981737;28;20084;-91
2022/01/07 03:07:36;;;;;;;17.13;6.63;;;;;;;-1.05;100.00;94618.59;4981229;28;20344;-92
2022/01/07 03:10:04;;;;;;;19.08;6.30;;;;;;;-1.11;100.00;94620.16;4981342;28;20026;-92
2022/01/07 03:12:29;;;;;;;18.75;5.90;;;;;;;-0.94;100.00;94607.78;4981481;28;20026;-91
2022/01/07 03:14:56;;;;;;;14.18;6.25;;;;;;;-0.97;100.00;94617.66;4981314;28;20329;-92
2022/01/07 03:17:21;;;;;;;14.13;6.50;;;;;;;-1.04;100.00;94615.81;4965077;28;20188;-91
2022/01/07 03:19:47;;;;;;;15.93;6.60;;;;;;;-1.17;100.00;94620.88;4980948;28;20133;-92
2022/01/07 03:22:12;;;;;;;13.57;6.75;;;;;;;-1.23;100.00;94625.00;4964969;28;20063;-91
2022/01/07 03:24:38;;;;;;;17.20;6.70;;;;;;;-1.29;100.00;94624.00;4964990;28;20034;-91
2022/01/07 03:27:04;;;;;;;19.42;8.05;;;;;;;-1.41;100.00;94620.31;4980906;28;20069;-92
2022/01/07 03:29:30;;;;;;;17.70;6.03;;;;;;;-1.39;100.00;94623.50;4981200;28;20037;-92
2022/01/07 03:31:56;;;;;;;19.30;6.95;;;;;;;-1.34;100.00;94623.72;4981080;28;20031;-92
2022/01/07 03:34:21;;;;;;;12.73;6.25;;;;;;;-1.33;100.00;94630.47;4980860;28;20031;-92
2022/01/07 03:36:47;;;;;;;14.52;5.95;;;;;;;-1.29;100.00;94623.19;4964711;28;20034;-92
2022/01/07 03:39:12;;;;;;;23.88;8.60;;;;;;;-1.27;100.00;94628.94;4964852;28;20038;-91
2022/01/07 03:41:38;;;;;;;16.15;6.00;;;;;;;-1.17;100.00;94631.16;4964787;28;20440;-92
2022/01/07 03:44:03;;;;;;;12.35;5.65;;;;;;;-1.17;100.00;94628.59;4980544;28;20041;-92
2022/01/07 03:46:29;;;;;;;14.57;6.15;;;;;;;-1.29;100.00;94636.84;4964538;28;20066;-91
2022/01/07 03:48:54;;;;;;;13.73;6.63;;;;;;;-1.38;100.00;94632.00;4980469;28;20117;-92
2022/01/07 03:51:20;;;;;;;15.65;6.43;;;;;;;-1.39;100.00;94633.78;4964569;28;20448;-90
2022/01/07 03:53:45;;;;;;;12.25;5.82;;;;;;;-1.35;100.00;94627.28;4980839;28;20038;-91
2022/01/07 03:56:17;;;;;;;16.20;6.60;;;;;;;-1.30;100.00;94637.78;4980355;28;20036;-91
2022/01/07 03:58:43;;;;;;;15.85;6.07;;;;;;;-1.34;100.00;94638.38;4965165;28;20026;-91
2022/01/07 04:01:09;;;;;;;13.73;6.38;;;;;;;-1.28;100.00;94629.91;4964538;28;20052;-91
2022/01/07 04:03:34;;;;;;;13.48;5.75;;;;;;;-1.23;100.00;94626.78;4979691;28;20030;-92
2022/01/07 04:06:00;;;;;;;13.05;6.20;;;;;;;-1.25;100.00;94623.59;4980443;28;20037;-91
2022/01/07 04:08:25;;;;;;;13.90;6.07;;;;;;;-1.24;100.00;94625.97;4980325;28;20022;-92
2022/01/07 04:10:51;;;;;;;13.45;6.15;;;;;;;-1.27;100.00;94631.50;4980421;28;20141;-92
2022/01/07 04:13:16;;;;;;;12.77;5.95;;;;;;;-1.20;100.00;94636.69;4964183;28;20026;-92
2022/01/07 04:15:42;;;;;;;11.77;5.50;;;;;;;-1.15;100.00;94635.16;4963852;28;20036;-91
2022/01/07 04:18:07;;;;;;;14.48;5.97;;;;;;;-1.06;100.00;94632.44;4963794;28;20424;-91
2022/01/07 04:20:34;;;;;;;14.95;5.43;;;;;;;-0.93;100.00;94631.72;4996548;28;20038;-92
2022/01/07 04:23:00;;;;;;;11.00;5.78;;;;;;;-0.90;100.00;94627.00;4996128;28;20037;-91
2022/01/07 04:25:26;;;;;;;12.18;5.47;;;;;;;-0.89;100.00;94633.75;4964322;28;20038;-92
2022/01/07 04:28:10;;;;;;;13.30;5.70;;;;;;;-0.88;100.00;94625.03;4964012;28;20459;-92
2022/01/07 04:30:40;;;;;;;10.55;5.45;;;;;;;-0.82;100.00;94628.63;4979960;28;20033;-90
2022/01/07 04:33:06;;;;;;;11.95;5.50;;;;;;;-0.78;100.00;94626.47;4964035;28;20494;-92
2022/01/07 04:35:35;;;;;;;11.45;4.97;;;;;;;-0.69;100.00;94629.69;4963960;28;20129;-91
2022/01/07 04:38:21;;;;;;;11.25;5.10;;;;;;;-0.77;100.00;94636.56;4979941;28;20030;-92
2022/01/07 04:40:46;;;;;;;17.63;6.28;;;;;;;-0.84;100.00;94635.75;4963837;28;20030;-90
2022/01/07 04:43:12;;;;;;;18.10;5.35;;;;;;;-0.86;100.00;94635.16;4963878;28;20022;-90
2022/01/07 04:45:38;;;;;;;14.23;5.78;;;;;;;-0.85;100.00;94639.31;4996206;28;20030;-91
2022/01/07 04:48:04;;;;;;;11.90;5.32;;;;;;;-0.80;100.00;94634.38;4971545;28;20033;-91
2022/01/07 04:50:30;;;;;;;11.13;5.60;;;;;;;-0.78;100.00;94629.84;4963590;28;20351;-91
2022/01/07 04:52:59;;;;;;;12.85;5.90;;;;;;;-0.84;100.00;94622.88;4962519;28;20033;-91
2022/01/07 04:55:29;;;;;;;14.82;6.05;;;;;;;-1.04;100.00;94622.75;4944888;28;20030;-91
2022/01/07 04:57:54;;;;;;;16.58;5.78;;;;;;;-1.04;100.00;94626.13;4960620;28;20356;-92
2022/01/07 05:00:22;;;;;;;14.88;6.10;;;;;;;-1.09;100.00;94630.22;4944302;28;20046;-92
2022/01/07 05:02:48;;;;;;;13.93;5.78;;;;;;;-1.00;100.00;94632.50;4976214;28;20077;-92
2022/01/07 05:05:13;;;;;;;12.00;5.55;;;;;;;-0.99;100.00;94625.56;4975896;28;20030;-91
2022/01/07 05:07:39;;;;;;;9.90;5.80;;;;;;;-0.95;100.00;94629.34;4960536;28;20066;-91
2022/01/07 05:10:10;;;;;;;12.07;5.82;;;;;;;-0.98;100.00;94624.56;4960040;28;20032;-91
2022/01/07 05:12:35;;;;;;;16.25;5.60;;;;;;;-0.92;100.00;94628.16;4944455;28;20031;-91
2022/01/07 05:15:01;;;;;;;11.52;5.82;;;;;;;-0.84;100.00;94635.75;4963544;28;20428;-91
2022/01/07 05:17:27;;;;;;;14.63;5.57;;;;;;;-0.77;100.00;94633.22;4947969;28;20054;-91
2022/01/07 05:19:52;;;;;;;12.85;5.40;;;;;;;-0.68;100.00;94633.84;4947833;28;20359;-90
2022/01/07 05:22:18;;;;;;;11.32;5.68;;;;;;;-0.78;100.00;94632.41;4948214;28;20030;-91
2022/01/07 05:24:43;;;;;;;14.05;5.20;;;;;;;-0.64;100.00;94630.72;4947828;28;20030;-90
2022/01/07 05:27:09;;;;;;;19.77;5.57;;;;;;;-0.65;100.00;94628.31;4963754;28;20432;-91
2022/01/07 05:29:35;;;;;;;16.30;6.15;;;;;;;-0.80;100.00;94629.25;4947651;28;20034;-90
2022/01/07 05:32:07;;;;;;;12.13;6.10;;;;;;;-0.93;100.00;94636.88;4963573;28;20030;-90
2022/01/07 05:34:32;;;;;;;12.15;5.85;;;;;;;-0.97;100.00;94645.97;4963582;28;20030;-91
2022/01/07 05:36:58;;;;;;;24.50;6.93;;;;;;;-1.10;100.00;94634.59;4963681;28;20037;-91
2022/01/07 05:39:24;;;;;;;14.35;5.82;;;;;;;-1.09;100.00;94640.50;4963273;28;20030;-91
2022/01/07 05:41:49;;;;;;;14.43;5.93;;;;;;;-0.95;100.00;94644.75;4963278;28;20037;-90
2022/01/07 05:44:15;;;;;;;13.90;5.78;;;;;;;-1.01;100.00;94641.16;4947513;28;20026;-91
2022/01/07 05:46:40;;;;;;;11.02;5.80;;;;;;;-0.75;100.00;94644.13;4963387;28;20035;-91
2022/01/07 05:49:05;;;;;;;15.57;5.75;;;;;;;-0.98;100.00;94636.66;4947379;28;20023;-92
2022/01/07 05:51:31;;;;;;;19.42;6.68;;;;;;;-1.10;100.00;94652.59;4947704;28;20027;-92
2022/01/07 05:53:57;;;;;;;11.90;5.25;;;;;;;-1.15;100.00;94654.91;4962926;28;20030;-91
2022/01/07 05:56:22;;;;;;;14.43;6.05;;;;;;;-1.21;100.00;94656.47;4947025;28;20070;-90
2022/01/07 05:58:47;;;;;;;13.25;6.47;;;;;;;-1.34;100.00;94648.66;4962826;28;20457;-89
2022/01/07 06:01:13;;;;;;;17.95;6.50;;;;;;;-1.34;100.00;94649.44;4947440;28;20038;-89
2022/01/07 06:03:40;;;;;;;23.30;7.15;;;;;;;-1.55;100.00;94649.47;4979471;28;20034;-91
2022/01/07 06:06:05;;;;;;;20.20;7.47;;;;;;;-1.71;100.00;94653.88;4947090;28;20034;-91
2022/01/07 06:08:31;;;;;;;14.10;8.00;;;;;;;-1.81;100.00;94658.50;4946719;28;20022;-90
2022/01/07 06:10:56;;;;;;;15.10;6.85;;;;;;;-1.88;100.00;94655.88;4963076;28;20436;-90
2022/01/07 06:13:22;;;;;;;18.70;7.47;;;;;;;-1.75;100.00;94652.63;4946936;28;20022;-91
2022/01/07 06:15:47;;;;;;;18.00;7.35;;;;;;;-1.64;100.00;94662.44;4946969;28;20027;-91
2022/01/07 06:18:13;;;;;;;17.15;7.53;;;;;;;-1.64;100.00;94659.84;4962568;28;20027;-91
2022/01/07 06:20:38;;;;;;;15.48;6.50;;;;;;;-1.43;100.00;94653.91;4962870;28;20035;-91
2022/01/07 06:23:04;;;;;;;18.77;6.75;;;;;;;-1.54;100.00;94662.13;4947069;28;20030;-91
2022/01/07 06:25:29;;;;;;;16.77;7.03;;;;;;;-1.64;100.00;94654.72;4946472;28;20033;-91
2022/01/07 06:27:55;;;;;;;14.23;7.07;;;;;;;-1.68;100.00;94653.50;4962694;28;20085;-91
2022/01/07 06:30:20;;;;;;;15.48;6.65;;;;;;;-1.71;100.00;94649.50;4946740;28;20035;-91
2022/01/07 06:32:46;;;;;;;13.60;6.68;;;;;;;-1.85;100.00;94653.75;4975900;28;20033;-91
2022/01/07 06:35:12;;;;;;;20.95;7.22;;;;;;;-1.80;100.00;94647.25;4966143;28;20029;-93
2022/01/07 06:41:12;;;;;;;20.92;7.80;;;;;;;-1.86;100.00;94659.06;4986441;28;20146;-92
2022/01/07 06:43:38;;;;;;;13.32;6.68;;;;;;;-1.94;100.00;94657.38;4946671;28;20160;-93
2022/01/07 06:46:03;;;;;;;16.35;7.53;;;;;;;-1.73;100.00;94654.03;4962737;28;20348;-93
2022/01/07 06:48:29;;;;;;;15.85;7.05;;;;;;;-1.90;100.00;94658.59;4946769;28;20070;-90
2022/01/07 06:50:55;;;;;;;14.57;7.32;;;;;;;-2.10;100.00;94658.41;4962244;28;20033;-92
2022/01/07 06:53:20;;;;;;;20.70;7.43;;;;;;;-2.03;100.00;94668.75;4948087;28;20027;-93
2022/01/07 06:55:46;;;;;;;12.73;6.80;;;;;;;-2.15;100.00;94674.38;4965969;28;20026;-92
2022/01/07 06:58:11;;;;;;;19.38;8.07;;;;;;;-2.27;100.00;94666.31;4981848;28;20025;-92
2022/01/07 07:00:37;;;;;;;18.45;8.80;;;;;;;-2.35;100.00;94660.47;4965527;28;20026;-91
2022/01/07 07:03:02;;;;;;;17.23;8.63;;;;;;;-2.45;100.00;94658.97;4965698;28;20121;-92
2022/01/07 07:05:28;;;;;;;17.42;8.63;;;;;;;-2.45;100.00;94658.97;4965402;28;20073;-92
2022/01/07 07:07:53;;;;;;;22.25;9.38;;;;;;;-2.28;100.00;94666.50;4981322;28;20053;-92
2022/01/07 07:10:19;;;;;;;19.55;8.43;;;;;;;-2.27;100.00;94668.09;4965971;28;20022;-91
2022/01/07 07:12:44;;;;;;;18.42;8.23;;;;;;;-2.04;100.00;94672.28;4997377;28;20026;-92
2022/01/07 07:15:10;;;;;;;19.08;8.65;;;;;;;-2.14;100.00;94668.25;4965538;28;20030;-92
2022/01/07 07:17:36;;;;;;;19.95;9.27;;;;;;;-2.10;100.00;94667.88;4965439;28;20030;-92
2022/01/07 07:20:03;;;;;;;19.63;8.55;;;;;;;-2.11;100.00;94658.59;4980938;28;20030;-91
2022/01/07 07:22:29;;;;;;;13.32;7.35;;;;;;;-2.11;100.00;94661.94;4965199;28;20022;-90
2022/01/07 07:24:54;;;;;;;23.70;8.98;;;;;;;-2.02;100.00;94660.88;4965074;28;20022;-92
2022/01/07 07:27:20;;;;;;;26.67;10.45;;;;;;;-1.99;100.00;94663.06;4964974;28;20084;-92
2022/01/07 07:29:46;;;;;;;18.52;9.07;;;;;;;-2.00;100.00;94668.41;4965227;28;20026;-92
2022/01/07 07:32:14;;;;;;;19.83;8.93;;;;;;;-1.99;100.00;94659.72;4964944;28;20026;-91
2022/01/07 07:37:07;;;;;;;18.92;8.82;;;;;;;-1.66;100.00;94666.97;4981059;28;20022;-92
2022/01/07 07:39:33;;;;;;;18.98;9.00;;;;;;;-1.65;100.00;94665.97;4964756;28;20022;-92
2022/01/07 07:41:59;;;;;;;20.23;8.48;;;;;;;-1.66;100.00;94664.38;4981282;28;20026;-93
2022/01/07 07:44:25;;;;;;;22.60;8.30;;;;;;;-1.66;100.00;94661.00;4964539;28;20033;-92
2022/01/07 07:46:51;;;;;;;20.38;8.32;;;;;;;-1.66;100.00;94666.16;4965166;28;20030;-92
2022/01/07 07:49:26;;;;;;;;;;;;;;;;;;;;;
2022/01/07 07:51:53;;;;;;;26.83;9.20;;;;;;;-1.60;100.00;94670.56;4998128;28;20113;-93
2022/01/07 07:54:19;;;;;;;23.20;8.75;;;;;;;-1.62;100.00;94667.38;4980864;28;20054;-93
2022/01/07 07:56:44;;;;;;;26.15;9.10;;;;;;;-1.51;100.00;94671.25;4964664;28;20033;-92
2022/01/07 07:59:10;;;;;;;15.40;8.30;;;;;;;-1.38;100.00;94670.56;4980522;28;20034;-93
2022/01/07 08:01:36;;;;;;;22.05;9.38;;;;;;;-1.36;100.00;94666.00;4981106;28;20041;-93
2022/01/07 08:04:01;;;;;;;22.45;8.43;;;;;;;-1.21;100.00;94665.94;4980739;28;20424;-93
2022/01/07 08:06:27;;;;;;;17.45;8.15;;;;;;;-1.06;100.00;94668.44;4980881;28;20037;-93
2022/01/07 08:08:53;;;;;;;22.90;8.30;;;;;;;-1.07;100.00;94672.00;4980642;28;20088;-92
2022/01/07 08:11:18;;;;;;;17.77;8.07;;;;;;;-1.13;100.00;94670.97;4980799;28;20027;-92
2022/01/07 08:16:15;;;;;;;21.35;7.43;;;;;;;-0.99;100.00;94666.72;4997268;28;20027;-92
2022/01/07 08:18:42;;;;;;;22.10;8.45;;;;;;;-1.08;100.00;94665.25;4964529;28;20065;-93
2022/01/07 08:21:10;;;;;;;17.50;7.50;;;;;;;-1.05;100.00;94663.09;4964956;28;20060;-94
2022/01/07 08:23:38;;;;;;;18.27;8.00;;;;;;;-0.90;100.00;94664.78;4980716;28;20451;-92
2022/01/07 08:26:07;;;;;;;15.07;7.88;;;;;;;-0.89;100.00;94676.66;4980782;28;20436;-93
2022/01/07 08:28:40;;;;;;;17.00;7.45;;;;;;;-0.82;100.00;94674.94;4980486;28;20025;-94
2022/01/07 08:36:17;;;;;;;16.25;6.97;;;;;;;-0.56;100.00;94655.50;4983099;28;20029;-95
2022/01/07 08:38:43;;;;;;;20.25;7.95;;;;;;;-0.46;100.00;94657.72;4980873;28;20033;-94
2022/01/07 08:41:09;;;;;;;11.98;6.80;;;;;;;-0.44;100.00;94648.81;4980656;28;20363;-93
2022/01/07 08:43:35;;;;;;;18.10;7.50;;;;;;;-0.51;100.00;94653.16;4996841;28;20033;-94
2022/01/07 08:46:00;;;;;;;14.57;6.68;;;;;;;-0.41;100.00;94655.38;4980708;28;20125;-94
2022/01/07 08:48:27;;;;;;;16.55;8.23;;;;;;;-0.36;100.00;94662.53;4981639;28;20080;-95
2022/01/07 08:50:53;;;;;;;17.90;8.40;;;;;;;-0.22;100.00;94658.22;4968361;28;20022;-94
2022/01/07 08:53:19;;;;;;;18.83;8.25;;;;;;;-0.08;100.00;94653.91;4984388;28;20026;-94
2022/01/07 08:55:45;;;;;;;17.75;7.43;;;;;;;0.03;100.00;94655.13;4984427;28;20030;-93
2022/01/07 08:58:11;;;;;;;16.27;8.32;;;;;;;-0.06;100.00;94657.91;4984707;28;20037;-95
2022/01/07 09:00:36;;;;;;;16.73;7.70;;;;;;;-0.09;100.00;94662.63;4968317;28;20030;-94
2022/01/07 09:03:02;;;;;;;21.75;7.80;;;;;;;0.08;100.00;94671.59;4967931;28;20026;-94
2022/01/07 09:05:27;;;;;;;18.55;7.35;;;;;;;-0.03;100.00;94667.81;4984241;28;20120;-94
2022/01/07 09:07:53;;;;;;;16.38;7.63;;;;;;;-0.17;100.00;94668.75;4999913;28;20109;-94
2022/01/07 09:10:19;;;;;;;16.08;7.43;;;;;;;-0.07;100.00;94665.81;4968045;28;20116;-94
2022/01/07 09:12:46;;;;;;;18.60;7.30;;;;;;;-0.07;100.00;94665.81;4983921;28;20510;-94
2022/01/07 09:15:12;;;;;;;17.73;6.38;;;;;;;0.04;100.00;94667.03;4967824;28;20026;-94
2022/01/07 09:17:38;;;;;;;16.17;7.63;;;;;;;0.11;100.00;94666.06;4967353;28;20026;-93
2022/01/07 09:20:05;;;;;;;13.75;7.30;;;;;;;0.09;100.00;94670.63;4983762;28;20455;-93
2022/01/07 09:22:31;;;;;;;18.83;7.97;;;;;;;0.20;100.00;94671.03;4968025;28;20026;-94
2022/01/07 09:25:00;;;;;;;17.40;6.80;;;;;;;0.12;100.00;94669.44;4967755;28;20033;-93
2022/01/07 09:27:26;;;;;;;13.90;7.03;;;;;;;0.06;100.00;94665.84;4967816;28;20491;-93
2022/01/07 09:29:51;;;;;;;13.73;7.30;;;;;;;0.19;100.00;94659.16;4984506;28;20120;-93
2022/01/07 09:32:17;;;;;;;17.67;7.70;;;;;;;0.22;100.00;94654.41;4983428;28;20036;-95
2022/01/07 09:34:42;;;;;;;13.45;6.97;;;;;;;0.34;100.00;94651.25;4967992;28;20026;-94
2022/01/07 09:37:08;;;;;;;16.30;7.47;;;;;;;0.38;100.00;94660.97;4983584;28;20030;-94
2022/01/07 09:39:36;;;;;;;16.63;7.28;;;;;;;0.44;100.00;94651.66;4967101;28;20077;-94
2022/01/07 09:42:03;;;;;;;14.52;7.57;;;;;;;0.64;100.00;94650.88;4967494;28;20038;-94
2022/01/07 09:44:29;;;;;;;14.48;6.85;;;;;;;0.62;100.00;94650.28;4967098;28;20026;-94
2022/01/07 09:46:57;;;;;;;16.13;7.28;;;;;;;0.75;100.00;94641.78;4982944;28;20026;-94
2022/01/07 09:49:22;;;;;;;13.63;7.07;;;;;;;0.89;100.00;94638.19;4983233;28;20019;-92
2022/01/07 09:51:48;;;;;;;17.60;6.97;;;;;;;0.74;100.00;94635.03;4998937;28;20029;-93
2022/01/07 09:54:13;;;;;;;14.85;7.25;;;;;;;0.83;100.00;94628.66;4966971;28;20075;-92
2022/01/07 09:56:39;;;;;;;18.33;7.70;;;;;;;0.87;100.00;94629.88;4982846;28;20440;-91
2022/01/07 09:59:07;;;;;;;15.27;6.72;;;;;;;0.88;100.00;94617.75;4982272;28;20062;-90
2022/01/07 10:01:59;;;;;;;13.48;6.70;;;;;;;0.91;100.00;94620.72;4981598;28;20049;-92
2022/01/07 10:04:28;;;;;;;16.10;6.93;;;;;;;0.86;100.00;94612.78;4982946;28;20088;-93
2022/01/07 10:07:16;;;;;;;13.15;6.85;;;;;;;0.75;100.00;94616.75;4966732;28;20026;-94
2022/01/07 10:10:06;;;;;;;17.98;8.05;;;;;;;0.74;100.00;94615.16;4982600;28;20062;-93
2022/01/07 10:13:00;;;;;;;16.83;7.50;;;;;;;0.76;100.00;94608.03;4966559;28;20356;-92
2022/01/07 10:15:29;;;;;;;18.50;7.72;;;;;;;0.84;100.00;94605.25;4966765;28;20022;-92
2022/01/07 10:18:00;;;;;;;20.40;7.45;;;;;;;0.95;100.00;94605.66;4982473;28;20026;-93
2022/01/07 10:20:34;;;;;;;19.23;7.45;;;;;;;1.12;100.00;94595.69;4982990;28;20041;-93
2022/01/07 10:23:08;;;;;;;22.45;7.78;;;;;;;1.05;100.00;94597.50;4998609;28;20097;-92
2022/01/07 10:25:35;;;;;;;18.10;7.68;;;;;;;1.05;100.00;94603.44;4982287;28;20336;-92
2022/01/07 10:28:04;;;;;;;15.05;6.40;;;;;;;1.06;100.00;94586.16;4982050;28;20506;-92
2022/01/07 10:30:48;;;;;;;14.38;6.60;;;;;;;1.21;100.00;94589.31;4982222;28;20026;-92
2022/01/07 10:33:24;;;;;;;17.55;7.70;;;;;;;1.24;100.00;94580.38;4982310;28;20058;-92
2022/01/07 10:35:52;;;;;;;18.52;7.40;;;;;;;1.22;100.00;94575.41;4966349;28;20026;-93
2022/01/07 10:38:25;;;;;;;16.27;7.28;;;;;;;1.55;100.00;94577.06;4981893;28;20112;-93
2022/01/07 10:40:52;;;;;;;17.50;7.57;;;;;;;1.44;100.00;94571.75;4982229;28;20360;-92
2022/01/07 10:43:34;;;;;;;17.65;8.10;;;;;;;1.43;100.00;94575.34;4981781;28;20049;-91
2022/01/07 10:46:21;;;;;;;16.98;7.72;;;;;;;1.70;100.00;94570.84;4982022;28;20373;-92
2022/01/07 10:49:00;;;;;;;15.20;7.57;;;;;;;1.74;100.00;94566.88;4997782;28;20018;-91
2022/01/07 10:51:31;;;;;;;18.90;7.65;;;;;;;1.85;100.00;94573.19;4966017;28;20022;-93
2022/01/07 10:54:02;;;;;;;17.10;7.75;;;;;;;1.84;100.00;94566.44;4997737;28;20343;-91
2022/01/07 10:56:35;;;;;;;16.02;7.75;;;;;;;1.71;100.00;94562.09;4965599;28;20109;-92
2022/01/07 10:59:13;;;;;;;;;;;;;;;2.08;100.00;94561.50;4997953;28;20070;-92
2022/01/07 11:01:43;;;;;;;17.85;7.60;;;;;;;2.08;100.00;94564.88;4981302;28;20125;-92
2022/01/07 11:04:15;;;;;;;14.15;7.35;;;;;;;2.11;100.00;94556.72;4965409;28;20443;-91
2022/01/07 11:06:42;;;;;;;13.05;7.07;;;;;;;1.96;100.00;94558.78;4965426;28;20030;-92
2022/01/07 11:09:10;;;;;;;13.23;7.35;;;;;;;1.92;100.00;94553.25;4981437;28;20019;-92
2022/01/07 11:11:45;;;;;;;18.10;8.20;;;;;;;2.15;100.00;94544.16;4965328;28;20133;-91
2022/01/07 11:14:12;;;;;;;17.90;7.60;;;;;;;2.20;100.00;94535.78;4981159;28;20113;-91
2022/01/07 11:16:39;;;;;;;15.05;7.15;;;;;;;2.57;100.00;94529.94;4981124;28;20038;-90
2022/01/07 11:19:07;;;;;;;15.55;7.50;;;;;;;2.85;100.00;94519.09;4996791;28;20031;-89
2022/01/07 11:21:33;;;;;;;13.07;6.07;;;;;;;3.22;100.00;94520.91;4964485;28;20081;-89
2022/01/07 11:23:58;;;;;;;16.13;6.07;;;;;;;3.40;100.00;94514.94;4980462;28;20037;-90
2022/01/07 11:26:24;;;;;;;11.75;5.88;;;;;;;3.76;100.00;94512.47;4980454;28;20037;-90
2022/01/07 11:29:01;;;;;;;12.50;5.28;;;;;;;3.93;100.00;94505.66;4980759;28;20395;-91
2022/01/07 11:31:27;;;;;;;11.55;5.95;;;;;;;4.23;100.00;94502.25;4996857;28;20026;-91
2022/01/07 11:34:18;;;;;;;8.93;5.50;;;;;;;4.26;100.00;94502.81;4964999;28;20026;-92
2022/01/07 11:36:43;;;;;;;19.02;5.50;;;;;;;3.94;100.00;94501.28;4980741;28;20101;-90
2022/01/07 11:39:09;;;;;;;9.95;5.20;;;;;;;4.44;100.00;94491.53;4964826;28;20073;-91